sensor_id;sensor_type;location;lat;lon;timestamp;pressure;altitude;pressure_sealevel;temperature;humidity
30935;BME280;51033;42.648;23.292;2023-07-16T00:01:56;94128.50;;;24.88;53.11
30935;BME280;51033;42.648;23.292;2023-07-16T00:04:22;94096.72;;;24.67;53.16
30935;BME280;51033;42.648;23.292;2023-07-16T00:06:47;94119.22;;;24.74;53.42
30935;BME280;51033;42.648;23.292;2023-07-16T00:09:13;94133.94;;;24.84;53.19
30935;BME280;51033;42.648;23.292;2023-07-16T00:11:38;94124.69;;;24.74;53.93
30935;BME280;51033;42.648;23.292;2023-07-16T00:14:03;94128.56;;;24.66;54.09
30935;BME280;51033;42.648;23.292;2023-07-16T00:16:29;94132.88;;;24.60;54.39
30935;BME280;51033;42.648;23.292;2023-07-16T00:18:54;94099.91;;;24.40;54.05
30935;BME280;51033;42.648;23.292;2023-07-16T00:21:20;94111.53;;;24.55;54.56
30935;BME280;51033;42.648;23.292;2023-07-16T00:23:45;94122.41;;;24.59;54.33
30935;BME280;51033;42.648;23.292;2023-07-16T00:26:12;94124.31;;;24.62;54.23
30935;BME280;51033;42.648;23.292;2023-07-16T00:28:37;94121.97;;;24.64;54.63
30935;BME280;51033;42.648;23.292;2023-07-16T00:31:03;94116.19;;;24.55;54.58
30935;BME280;51033;42.648;23.292;2023-07-16T00:33:28;94128.59;;;24.63;54.42
30935;BME280;51033;42.648;23.292;2023-07-16T00:35:54;94116.97;;;24.55;54.56
30935;BME280;51033;42.648;23.292;2023-07-16T00:38:19;94126.25;;;24.65;54.13
30935;BME280;51033;42.648;23.292;2023-07-16T00:40:48;94133.63;;;24.68;54.11
30935;BME280;51033;42.648;23.292;2023-07-16T00:43:13;94118.91;;;24.58;54.50
30935;BME280;51033;42.648;23.292;2023-07-16T00:45:40;94125.50;;;24.57;54.62
30935;BME280;51033;42.648;23.292;2023-07-16T00:48:06;94122.78;;;24.57;54.71
30935;BME280;51033;42.648;23.292;2023-07-16T00:50:36;94130.16;;;24.60;54.72
30935;BME280;51033;42.648;23.292;2023-07-16T00:53:05;94121.63;;;24.55;54.92
30935;BME280;51033;42.648;23.292;2023-07-16T00:55:31;94109.25;;;24.43;55.35
30935;BME280;51033;42.648;23.292;2023-07-16T00:58:00;94125.53;;;24.50;55.23
30935;BME280;51033;42.648;23.292;2023-07-16T01:00:28;94118.97;;;24.44;54.93
30935;BME280;51033;42.648;23.292;2023-07-16T01:02:53;94120.09;;;24.50;55.00
30935;BME280;51033;42.648;23.292;2023-07-16T01:05:19;94122.81;;;24.54;54.76
30935;BME280;51033;42.648;23.292;2023-07-16T01:07:58;94123.19;;;24.52;54.45
30935;BME280;51033;42.648;23.292;2023-07-16T01:10:25;94111.59;;;24.37;54.95
30935;BME280;51033;42.648;23.292;2023-07-16T01:12:54;94091.84;;;24.16;55.10
30935;BME280;51033;42.648;23.292;2023-07-16T01:15:20;94111.63;;;24.23;55.31
30935;BME280;51033;42.648;23.292;2023-07-16T01:17:46;94120.16;;;24.25;55.67
30935;BME280;51033;42.648;23.292;2023-07-16T01:20:11;94131.03;;;24.29;55.32
30935;BME280;51033;42.648;23.292;2023-07-16T01:31:01;94121.38;;;24.14;56.00
30935;BME280;51033;42.648;23.292;2023-07-16T01:33:27;94107.38;;;24.08;55.68
30935;BME280;51033;42.648;23.292;2023-07-16T01:35:53;94109.72;;;24.13;55.79
30935;BME280;51033;42.648;23.292;2023-07-16T01:38:19;94105.44;;;24.12;55.41
30935;BME280;51033;42.648;23.292;2023-07-16T01:40:46;94108.53;;;24.11;55.32
30935;BME280;51033;42.648;23.292;2023-07-16T01:43:12;94115.91;;;24.10;55.92
30935;BME280;51033;42.648;23.292;2023-07-16T01:45:38;94114.75;;;24.08;55.88
30935;BME280;51033;42.648;23.292;2023-07-16T01:48:35;94126.78;;;24.03;55.92
30935;BME280;51033;42.648;23.292;2023-07-16T01:51:01;94124.47;;;23.98;56.08
30935;BME280;51033;42.648;23.292;2023-07-16T01:53:27;94126.00;;;23.95;56.29
30935;BME280;51033;42.648;23.292;2023-07-16T01:55:52;94124.88;;;23.89;56.28
30935;BME280;51033;42.648;23.292;2023-07-16T01:58:18;94129.91;;;23.87;56.07
30935;BME280;51033;42.648;23.292;2023-07-16T02:00:44;94127.97;;;23.84;56.31
30935;BME280;51033;42.648;23.292;2023-07-16T02:03:09;94116.34;;;23.80;56.35
30935;BME280;51033;42.648;23.292;2023-07-16T02:05:34;94134.94;;;23.82;56.32
30935;BME280;51033;42.648;23.292;2023-07-16T02:08:00;94137.69;;;23.85;56.68
30935;BME280;51033;42.648;23.292;2023-07-16T02:10:25;94111.31;;;23.75;56.98
30935;BME280;51033;42.648;23.292;2023-07-16T02:12:51;94134.97;;;23.85;57.24
30935;BME280;51033;42.648;23.292;2023-07-16T02:15:16;94131.47;;;23.81;57.02
30935;BME280;51033;42.648;23.292;2023-07-16T02:17:43;94117.13;;;23.74;56.69
30935;BME280;51033;42.648;23.292;2023-07-16T02:20:09;94132.63;;;23.87;56.57
30935;BME280;51033;42.648;23.292;2023-07-16T02:22:35;94126.06;;;23.74;56.71
30935;BME280;51033;42.648;23.292;2023-07-16T02:25:01;94128.00;;;23.74;57.20
30935;BME280;51033;42.648;23.292;2023-07-16T02:27:27;94133.03;;;23.68;57.56
30935;BME280;51033;42.648;23.292;2023-07-16T02:29:52;94121.38;;;23.57;57.47
30935;BME280;51033;42.648;23.292;2023-07-16T02:32:18;94132.25;;;23.64;57.84
30935;BME280;51033;42.648;23.292;2023-07-16T02:34:43;94121.38;;;23.57;57.42
30935;BME280;51033;42.648;23.292;2023-07-16T02:37:09;94138.06;;;23.66;57.33
30935;BME280;51033;42.648;23.292;2023-07-16T02:39:34;94136.53;;;23.65;57.52
30935;BME280;51033;42.648;23.292;2023-07-16T02:41:59;94139.59;;;23.56;57.81
30935;BME280;51033;42.648;23.292;2023-07-16T02:44:25;94123.34;;;23.53;57.30
30935;BME280;51033;42.648;23.292;2023-07-16T02:46:50;94137.28;;;23.62;57.18
30935;BME280;51033;42.648;23.292;2023-07-16T02:49:16;94143.50;;;23.66;57.26
30935;BME280;51033;42.648;23.292;2023-07-16T02:51:41;94147.38;;;23.65;57.26
30935;BME280;51033;42.648;23.292;2023-07-16T02:54:07;94119.47;;;23.50;57.35
30935;BME280;51033;42.648;23.292;2023-07-16T02:56:32;94129.94;;;23.59;57.22
30935;BME280;51033;42.648;23.292;2023-07-16T02:58:57;94133.44;;;23.56;57.04
30935;BME280;51033;42.648;23.292;2023-07-16T03:01:23;94138.84;;;23.49;57.40
30935;BME280;51033;42.648;23.292;2023-07-16T03:03:48;94134.94;;;23.39;57.96
30935;BME280;51033;42.648;23.292;2023-07-16T03:06:14;94134.94;;;23.36;57.67
30935;BME280;51033;42.648;23.292;2023-07-16T03:08:39;94123.69;;;23.30;58.06
30935;BME280;51033;42.648;23.292;2023-07-16T03:11:05;94141.13;;;23.47;57.57
30935;BME280;51033;42.648;23.292;2023-07-16T03:13:30;94140.34;;;23.43;58.10
30935;BME280;51033;42.648;23.292;2023-07-16T03:15:55;94134.94;;;23.39;57.66
30935;BME280;51033;42.648;23.292;2023-07-16T03:18:21;94136.50;;;23.40;58.20
30935;BME280;51033;42.648;23.292;2023-07-16T03:20:46;94144.22;;;23.42;57.81
30935;BME280;51033;42.648;23.292;2023-07-16T03:23:12;94135.69;;;23.33;58.19
30935;BME280;51033;42.648;23.292;2023-07-16T03:25:37;94138.41;;;23.33;58.57
30935;BME280;51033;42.648;23.292;2023-07-16T03:28:03;94153.53;;;23.34;58.32
30935;BME280;51033;42.648;23.292;2023-07-16T03:30:30;94138.78;;;23.24;58.54
30935;BME280;51033;42.648;23.292;2023-07-16T03:32:55;94152.75;;;23.37;58.48
30935;BME280;51033;42.648;23.292;2023-07-16T03:35:21;94146.94;;;23.28;58.54
30935;BME280;51033;42.648;23.292;2023-07-16T03:37:46;94155.88;;;23.35;58.37
30935;BME280;51033;42.648;23.292;2023-07-16T03:40:17;94158.97;;;23.34;58.67
30935;BME280;51033;42.648;23.292;2023-07-16T03:42:43;94149.66;;;23.31;58.64
30935;BME280;51033;42.648;23.292;2023-07-16T03:45:10;94155.50;;;23.40;58.67
30935;BME280;51033;42.648;23.292;2023-07-16T03:47:36;94152.75;;;23.37;58.69
30935;BME280;51033;42.648;23.292;2023-07-16T03:50:01;94169.84;;;23.48;58.89
30935;BME280;51033;42.648;23.292;2023-07-16T03:52:26;94168.31;;;23.54;58.75
30935;BME280;51033;42.648;23.292;2023-07-16T03:54:52;94167.94;;;23.59;58.51
30935;BME280;51033;42.648;23.292;2023-07-16T03:57:17;94153.59;;;23.55;57.88
30935;BME280;51033;42.648;23.292;2023-07-16T03:59:43;94168.31;;;23.68;57.77
30935;BME280;51033;42.648;23.292;2023-07-16T04:02:08;94159.00;;;23.73;57.41
30935;BME280;51033;42.648;23.292;2023-07-16T04:04:34;94172.22;;;23.74;57.62
30935;BME280;51033;42.648;23.292;2023-07-16T04:06:59;94166.78;;;23.74;58.28
30935;BME280;51033;42.648;23.292;2023-07-16T04:09:25;94147.38;;;23.62;58.92
30935;BME280;51033;42.648;23.292;2023-07-16T04:11:50;94169.13;;;23.79;58.74
30935;BME280;51033;42.648;23.292;2023-07-16T04:14:16;94172.22;;;23.88;58.87
30935;BME280;51033;42.648;23.292;2023-07-16T04:16:41;94156.31;;;23.83;58.94
30935;BME280;51033;42.648;23.292;2023-07-16T04:19:08;94166.78;;;23.88;57.60
30935;BME280;51033;42.648;23.292;2023-07-16T04:21:33;94183.47;;;23.97;57.27
30935;BME280;51033;42.648;23.292;2023-07-16T04:23:59;94170.66;;;23.94;56.98
30935;BME280;51033;42.648;23.292;2023-07-16T04:26:24;94176.84;;;24.02;57.23
30935;BME280;51033;42.648;23.292;2023-07-16T04:28:49;94176.50;;;24.14;56.51
30935;BME280;51033;42.648;23.292;2023-07-16T04:31:15;94152.78;;;24.08;56.28
30935;BME280;51033;42.648;23.292;2023-07-16T04:33:40;94177.63;;;24.10;56.52
30935;BME280;51033;42.648;23.292;2023-07-16T04:36:06;94174.16;;;24.16;56.41
30935;BME280;51033;42.648;23.292;2023-07-16T04:38:31;94179.97;;;24.22;56.38
30935;BME280;51033;42.648;23.292;2023-07-16T04:40:56;94178.03;;;24.19;55.87
30935;BME280;51033;42.648;23.292;2023-07-16T04:43:22;94180.34;;;24.31;55.98
30935;BME280;51033;42.648;23.292;2023-07-16T04:45:47;94182.25;;;24.41;55.91
30935;BME280;51033;42.648;23.292;2023-07-16T04:48:13;94129.88;;;24.01;55.15
30935;BME280;51033;42.648;23.292;2023-07-16T04:50:38;94191.56;;;24.51;54.89
30935;BME280;51033;42.648;23.292;2023-07-16T04:53:04;94190.38;;;24.55;54.20
30935;BME280;51033;42.648;23.292;2023-07-16T04:55:35;94185.72;;;24.52;54.89
30935;BME280;51033;42.648;23.292;2023-07-16T04:58:00;94175.22;;;24.54;54.65
30935;BME280;51033;42.648;23.292;2023-07-16T05:00:25;94184.13;;;24.65;54.36
30935;BME280;51033;42.648;23.292;2023-07-16T05:02:51;94193.81;;;24.80;53.50
30935;BME280;51033;42.648;23.292;2023-07-16T05:05:16;94195.75;;;24.80;53.25
30935;BME280;51033;42.648;23.292;2023-07-16T05:07:42;94203.13;;;24.79;54.52
30935;BME280;51033;42.648;23.292;2023-07-16T05:10:07;94186.81;;;24.79;53.99
30935;BME280;51033;42.648;23.292;2023-07-16T05:12:33;94169.75;;;24.75;54.14
30935;BME280;51033;42.648;23.292;2023-07-16T05:14:58;94185.97;;;25.00;52.86
30935;BME280;51033;42.648;23.292;2023-07-16T05:17:24;94192.13;;;25.11;52.06
30935;BME280;51033;42.648;23.292;2023-07-16T05:19:49;94181.31;;;25.01;52.85
30935;BME280;51033;42.648;23.292;2023-07-16T05:22:14;94184.41;;;24.99;52.11
30935;BME280;51033;42.648;23.292;2023-07-16T05:24:40;94194.09;;;25.11;52.47
30935;BME280;51033;42.648;23.292;2023-07-16T05:27:05;94192.91;;;25.12;52.71
30935;BME280;51033;42.648;23.292;2023-07-16T05:29:31;94201.78;;;25.23;52.97
30935;BME280;51033;42.648;23.292;2023-07-16T05:31:56;94199.84;;;25.31;52.69
30935;BME280;51033;42.648;23.292;2023-07-16T05:34:22;94161.78;;;25.13;51.40
30935;BME280;51033;42.648;23.292;2023-07-16T05:36:47;94197.47;;;25.36;51.58
30935;BME280;51033;42.648;23.292;2023-07-16T05:39:12;94197.47;;;25.36;51.89
30935;BME280;51033;42.648;23.292;2023-07-16T05:41:39;94201.69;;;25.51;51.78
30935;BME280;51033;42.648;23.292;2023-07-16T05:44:05;94204.31;;;25.62;51.02
30935;BME280;51033;42.648;23.292;2023-07-16T05:46:30;94199.28;;;25.57;51.41
30935;BME280;51033;42.648;23.292;2023-07-16T05:48:56;94207.81;;;25.62;50.40
30935;BME280;51033;42.648;23.292;2023-07-16T05:51:21;94219.09;;;25.64;50.85
30935;BME280;51033;42.648;23.292;2023-07-16T05:53:47;94215.56;;;25.67;50.57
30935;BME280;51033;42.648;23.292;2023-07-16T05:56:12;94212.88;;;25.64;50.60
30935;BME280;51033;42.648;23.292;2023-07-16T05:58:39;94210.09;;;25.67;48.99
30935;BME280;51033;42.648;23.292;2023-07-16T06:01:05;94225.28;;;25.68;49.31
30935;BME280;51033;42.648;23.292;2023-07-16T06:03:30;94220.56;;;25.73;50.27
30935;BME280;51033;42.648;23.292;2023-07-16T06:05:56;94210.91;;;25.64;50.51
30935;BME280;51033;42.648;23.292;2023-07-16T06:08:21;94217.53;;;25.63;50.15
30935;BME280;51033;42.648;23.292;2023-07-16T06:10:47;94222.53;;;25.76;49.94
30935;BME280;51033;42.648;23.292;2023-07-16T06:13:13;94207.31;;;25.78;49.93
30935;BME280;51033;42.648;23.292;2023-07-16T06:15:38;94212.66;;;25.96;49.38
30935;BME280;51033;42.648;23.292;2023-07-16T06:18:03;94222.38;;;26.00;49.93
30935;BME280;51033;42.648;23.292;2023-07-16T06:20:29;94204.06;;;25.97;49.67
30935;BME280;51033;42.648;23.292;2023-07-16T06:22:54;94214.81;;;26.19;48.69
30935;BME280;51033;42.648;23.292;2023-07-16T06:25:20;94217.16;;;26.20;49.72
30935;BME280;51033;42.648;23.292;2023-07-16T06:27:45;94219.06;;;26.23;50.11
30935;BME280;51033;42.648;23.292;2023-07-16T06:30:10;94203.88;;;26.22;49.44
30935;BME280;51033;42.648;23.292;2023-07-16T06:32:36;94210.44;;;26.28;49.68
30935;BME280;51033;42.648;23.292;2023-07-16T06:35:01;94211.13;;;26.36;49.25
30935;BME280;51033;42.648;23.292;2023-07-16T06:37:27;94214.59;;;26.43;48.78
30935;BME280;51033;42.648;23.292;2023-07-16T06:39:52;94205.97;;;26.45;48.50
30935;BME280;51033;42.648;23.292;2023-07-16T06:42:17;94214.56;;;26.47;49.09
30935;BME280;51033;42.648;23.292;2023-07-16T06:44:43;94212.97;;;26.53;48.90
30935;BME280;51033;42.648;23.292;2023-07-16T06:47:08;94207.84;;;26.59;48.34
30935;BME280;51033;42.648;23.292;2023-07-16T06:49:34;94196.59;;;26.53;48.48
30935;BME280;51033;42.648;23.292;2023-07-16T06:52:02;94212.44;;;26.65;49.25
30935;BME280;51033;42.648;23.292;2023-07-16T06:54:27;94205.44;;;26.64;48.71
30935;BME280;51033;42.648;23.292;2023-07-16T06:56:53;94197.88;;;26.79;48.06
30935;BME280;51033;42.648;23.292;2023-07-16T06:59:19;94206.38;;;26.84;48.75
30935;BME280;51033;42.648;23.292;2023-07-16T07:01:44;94172.22;;;26.73;47.83
30935;BME280;51033;42.648;23.292;2023-07-16T07:04:10;94205.53;;;26.91;47.72
30935;BME280;51033;42.648;23.292;2023-07-16T07:06:35;94211.25;;;27.00;47.21
30935;BME280;51033;42.648;23.292;2023-07-16T07:09:00;94170.94;;;26.81;47.72
30935;BME280;51033;42.648;23.292;2023-07-16T07:11:26;94211.47;;;27.16;48.03
30935;BME280;51033;42.648;23.292;2023-07-16T07:13:52;94213.94;;;27.07;47.08
30935;BME280;51033;42.648;23.292;2023-07-16T07:16:17;94210.03;;;27.08;47.47
30935;BME280;51033;42.648;23.292;2023-07-16T07:18:43;94206.56;;;27.04;47.61
30935;BME280;51033;42.648;23.292;2023-07-16T07:21:08;94209.16;;;27.15;46.83
30935;BME280;51033;42.648;23.292;2023-07-16T07:23:34;94197.59;;;27.00;48.24
30935;BME280;51033;42.648;23.292;2023-07-16T07:25:59;94215.13;;;27.06;47.94
30935;BME280;51033;42.648;23.292;2023-07-16T07:28:25;94196.06;;;26.99;47.93
30935;BME280;51033;42.648;23.292;2023-07-16T07:30:50;94200.56;;;27.16;47.67
30935;BME280;51033;42.648;23.292;2023-07-16T07:33:16;94203.63;;;27.18;47.70
30935;BME280;51033;42.648;23.292;2023-07-16T07:35:41;94199.66;;;27.26;47.41
30935;BME280;51033;42.648;23.292;2023-07-16T07:38:07;94208.63;;;27.27;47.65
30935;BME280;51033;42.648;23.292;2023-07-16T07:40:32;94213.13;;;27.40;47.13
30935;BME280;51033;42.648;23.292;2023-07-16T07:42:57;94197.19;;;27.35;46.81
30935;BME280;51033;42.648;23.292;2023-07-16T07:45:24;94207.38;;;27.31;48.31
30935;BME280;51033;42.648;23.292;2023-07-16T07:47:49;94205.47;;;27.28;47.55
30935;BME280;51033;42.648;23.292;2023-07-16T07:50:15;94192.69;;;27.22;47.97
30935;BME280;51033;42.648;23.292;2023-07-16T07:52:40;94208.13;;;27.35;47.36
30935;BME280;51033;42.648;23.292;2023-07-16T07:55:06;94208.00;;;27.42;47.25
30935;BME280;51033;42.648;23.292;2023-07-16T07:57:32;94204.81;;;27.48;46.69
30935;BME280;51033;42.648;23.292;2023-07-16T07:59:57;94192.38;;;27.43;47.15
30935;BME280;51033;42.648;23.292;2023-07-16T08:02:26;94197.91;;;27.39;47.11
30935;BME280;51033;42.648;23.292;2023-07-16T08:04:53;94188.59;;;27.37;46.73
30935;BME280;51033;42.648;23.292;2023-07-16T08:07:19;94214.22;;;27.47;46.77
30935;BME280;51033;42.648;23.292;2023-07-16T08:09:45;94200.84;;;27.52;47.36
30935;BME280;51033;42.648;23.292;2023-07-16T08:12:10;94199.13;;;27.65;45.61
30935;BME280;51033;42.648;23.292;2023-07-16T08:14:36;94200.72;;;27.63;46.68
30935;BME280;51033;42.648;23.292;2023-07-16T08:17:01;94203.56;;;27.52;45.62
30935;BME280;51033;42.648;23.292;2023-07-16T08:19:27;94200.81;;;27.56;46.71
30935;BME280;51033;42.648;23.292;2023-07-16T08:21:52;94191.84;;;27.55;46.57
30935;BME280;51033;42.648;23.292;2023-07-16T08:24:18;94196.88;;;27.60;45.83
30935;BME280;51033;42.648;23.292;2023-07-16T08:26:43;94199.53;;;27.64;45.65
30935;BME280;51033;42.648;23.292;2023-07-16T08:29:09;94201.41;;;27.70;46.09
30935;BME280;51033;42.648;23.292;2023-07-16T08:31:34;94198.31;;;27.68;44.54
30935;BME280;51033;42.648;23.292;2023-07-16T08:33:59;94189.16;;;27.52;45.25
30935;BME280;51033;42.648;23.292;2023-07-16T08:36:25;94206.91;;;27.67;45.59
30935;BME280;51033;42.648;23.292;2023-07-16T08:38:51;94198.44;;;27.58;45.63
30935;BME280;51033;42.648;23.292;2023-07-16T08:41:17;94208.44;;;27.68;45.89
30935;BME280;51033;42.648;23.292;2023-07-16T08:43:45;94207.69;;;27.67;45.67
30935;BME280;51033;42.648;23.292;2023-07-16T08:46:11;94208.41;;;27.71;45.80
30935;BME280;51033;42.648;23.292;2023-07-16T08:48:37;94196.81;;;27.64;45.55
30935;BME280;51033;42.648;23.292;2023-07-16T08:51:02;94199.78;;;27.73;45.34
30935;BME280;51033;42.648;23.292;2023-07-16T08:53:29;94203.50;;;27.86;45.16
30935;BME280;51033;42.648;23.292;2023-07-16T08:55:55;94192.59;;;27.86;44.75
30935;BME280;51033;42.648;23.292;2023-07-16T08:58:23;94201.50;;;27.90;45.10
30935;BME280;51033;42.648;23.292;2023-07-16T09:00:49;94203.44;;;27.90;44.46
30935;BME280;51033;42.648;23.292;2023-07-16T09:03:15;94202.44;;;28.03;44.89
30935;BME280;51033;42.648;23.292;2023-07-16T09:05:47;94195.25;;;27.90;43.93
30935;BME280;51033;42.648;23.292;2023-07-16T09:08:13;94198.59;;;28.01;45.10
30935;BME280;51033;42.648;23.292;2023-07-16T09:10:43;94187.59;;;28.04;44.36
30935;BME280;51033;42.648;23.292;2023-07-16T09:13:09;94191.31;;;28.17;44.75
30935;BME280;51033;42.648;23.292;2023-07-16T09:15:35;94186.19;;;28.19;44.38
30935;BME280;51033;42.648;23.292;2023-07-16T09:18:01;94175.78;;;28.11;44.30
30935;BME280;51033;42.648;23.292;2023-07-16T09:20:27;94175.03;;;28.10;44.81
30935;BME280;51033;42.648;23.292;2023-07-16T09:22:58;94186.69;;;28.14;44.90
30935;BME280;51033;42.648;23.292;2023-07-16T09:25:30;94183.16;;;28.14;44.61
30935;BME280;51033;42.648;23.292;2023-07-16T09:28:03;94181.25;;;28.11;45.07
30935;BME280;51033;42.648;23.292;2023-07-16T09:30:32;94175.97;;;28.23;44.11
30935;BME280;51033;42.648;23.292;2023-07-16T09:33:09;94179.81;;;28.26;44.86
30935;BME280;51033;42.648;23.292;2023-07-16T09:35:35;94174.00;;;28.24;43.72
30935;BME280;51033;42.648;23.292;2023-07-16T09:38:02;94184.75;;;28.35;44.64
30935;BME280;51033;42.648;23.292;2023-07-16T09:40:28;94179.94;;;28.42;44.17
30935;BME280;51033;42.648;23.292;2023-07-16T09:42:54;94173.94;;;28.28;43.61
30935;BME280;51033;42.648;23.292;2023-07-16T09:48:03;94173.34;;;28.16;44.37
30935;BME280;51033;42.648;23.292;2023-07-16T09:50:31;94173.94;;;28.28;44.54
30935;BME280;51033;42.648;23.292;2023-07-16T09:52:57;94175.22;;;28.43;45.35
30935;BME280;51033;42.648;23.292;2023-07-16T09:55:24;94165.69;;;28.51;44.57
30935;BME280;51033;42.648;23.292;2023-07-16T09:57:55;94161.78;;;28.52;44.64
30935;BME280;51033;42.648;23.292;2023-07-16T10:00:22;94161.44;;;28.50;43.63
30935;BME280;51033;42.648;23.292;2023-07-16T10:02:49;94169.34;;;28.44;42.95
30935;BME280;51033;42.648;23.292;2023-07-16T10:05:17;94171.13;;;28.54;43.92
30935;BME280;51033;42.648;23.292;2023-07-16T10:07:50;94160.22;;;28.51;43.28
30935;BME280;51033;42.648;23.292;2023-07-16T10:10:16;94126.13;;;28.36;42.99
30935;BME280;51033;42.648;23.292;2023-07-16T10:12:43;94157.41;;;28.78;42.72
30935;BME280;51033;42.648;23.292;2023-07-16T10:15:25;94144.28;;;28.69;42.91
30935;BME280;51033;42.648;23.292;2023-07-16T10:17:52;94150.47;;;28.73;42.55
30935;BME280;51033;42.648;23.292;2023-07-16T10:20:31;94153.69;;;28.88;43.49
30935;BME280;51033;42.648;23.292;2023-07-16T10:22:57;94136.63;;;28.80;43.40
30935;BME280;51033;42.648;23.292;2023-07-16T10:25:25;94142.03;;;28.84;42.82
30935;BME280;51033;42.648;23.292;2023-07-16T10:27:52;94140.97;;;28.78;42.96
30935;BME280;51033;42.648;23.292;2023-07-16T10:30:18;94133.06;;;28.83;42.91
30935;BME280;51033;42.648;23.292;2023-07-16T10:32:44;94143.25;;;28.99;42.45
30935;BME280;51033;42.648;23.292;2023-07-16T10:35:11;94142.16;;;28.96;41.77
30935;BME280;51033;42.648;23.292;2023-07-16T10:37:37;94144.97;;;28.93;41.73
30935;BME280;51033;42.648;23.292;2023-07-16T10:40:04;94120.28;;;28.77;41.42
30935;BME280;51033;42.648;23.292;2023-07-16T10:42:30;94138.56;;;28.99;41.40
30935;BME280;51033;42.648;23.292;2023-07-16T10:45:01;94123.41;;;28.95;42.25
30935;BME280;51033;42.648;23.292;2023-07-16T10:47:31;94131.13;;;29.00;40.97
30935;BME280;51033;42.648;23.292;2023-07-16T10:49:58;94137.25;;;29.07;40.98
30935;BME280;51033;42.648;23.292;2023-07-16T10:52:24;94140.09;;;29.20;42.42
30935;BME280;51033;42.648;23.292;2023-07-16T10:54:52;94132.53;;;29.08;40.40
30935;BME280;51033;42.648;23.292;2023-07-16T10:57:22;94126.97;;;29.12;43.26
30935;BME280;51033;42.648;23.292;2023-07-16T10:59:48;94126.59;;;29.29;40.74
30935;BME280;51033;42.648;23.292;2023-07-16T11:02:16;94138.75;;;29.28;40.38
30935;BME280;51033;42.648;23.292;2023-07-16T11:04:44;94108.53;;;29.16;40.62
30935;BME280;51033;42.648;23.292;2023-07-16T11:07:11;94125.41;;;29.30;41.36
30935;BME280;51033;42.648;23.292;2023-07-16T11:09:55;94122.53;;;29.37;39.90
30935;BME280;51033;42.648;23.292;2023-07-16T11:12:22;94124.50;;;29.37;39.62
30935;BME280;51033;42.648;23.292;2023-07-16T11:14:53;94119.78;;;29.37;39.49
30935;BME280;51033;42.648;23.292;2023-07-16T11:17:20;94127.06;;;29.44;39.28
30935;BME280;51033;42.648;23.292;2023-07-16T11:19:48;94114.91;;;29.45;43.07
30935;BME280;51033;42.648;23.292;2023-07-16T11:22:14;94126.63;;;29.45;38.84
30935;BME280;51033;42.648;23.292;2023-07-16T11:24:42;94123.03;;;29.48;39.20
30935;BME280;51033;42.648;23.292;2023-07-16T11:27:28;94121.09;;;29.65;39.17
30935;BME280;51033;42.648;23.292;2023-07-16T11:29:56;94121.03;;;29.69;39.47
30935;BME280;51033;42.648;23.292;2023-07-16T11:34:59;94115.53;;;29.69;38.49
30935;BME280;51033;42.648;23.292;2023-07-16T11:37:25;94117.00;;;29.73;39.35
30935;BME280;51033;42.648;23.292;2023-07-16T11:40:04;94117.84;;;29.70;38.08
30935;BME280;51033;42.648;23.292;2023-07-16T11:42:30;94105.00;;;29.83;37.61
30935;BME280;51033;42.648;23.292;2023-07-16T11:44:57;94103.53;;;29.79;37.89
30935;BME280;51033;42.648;23.292;2023-07-16T11:47:23;94103.22;;;29.77;37.92
30935;BME280;51033;42.648;23.292;2023-07-16T11:49:48;94113.22;;;30.00;40.90
30935;BME280;51033;42.648;23.292;2023-07-16T11:52:14;94097.59;;;29.97;38.36
30935;BME280;51033;42.648;23.292;2023-07-16T11:54:40;94098.22;;;30.04;37.17
30935;BME280;51033;42.648;23.292;2023-07-16T11:57:06;94111.66;;;30.15;38.89
30935;BME280;51033;42.648;23.292;2023-07-16T11:59:31;94094.53;;;30.11;37.39
30935;BME280;51033;42.648;23.292;2023-07-16T12:01:56;94107.00;;;30.12;35.84
30935;BME280;51033;42.648;23.292;2023-07-16T12:04:22;94083.97;;;30.09;36.15
30935;BME280;51033;42.648;23.292;2023-07-16T12:06:47;94104.13;;;30.19;35.89
30935;BME280;51033;42.648;23.292;2023-07-16T12:09:13;94102.59;;;30.18;36.06
30935;BME280;51033;42.648;23.292;2023-07-16T12:11:38;94091.00;;;30.10;37.15
30935;BME280;51033;42.648;23.292;2023-07-16T12:14:05;94097.00;;;30.21;36.71
30935;BME280;51033;42.648;23.292;2023-07-16T12:16:31;94093.16;;;30.19;37.63
30935;BME280;51033;42.648;23.292;2023-07-16T12:18:56;94081.31;;;30.22;37.80
30935;BME280;51033;42.648;23.292;2023-07-16T12:21:22;94094.22;;;30.38;40.78
30935;BME280;51033;42.648;23.292;2023-07-16T12:23:47;94092.59;;;30.40;37.71
30935;BME280;51033;42.648;23.292;2023-07-16T12:26:12;94092.66;;;30.36;36.67
30935;BME280;51033;42.648;23.292;2023-07-16T12:28:38;94088.31;;;30.39;37.42
30935;BME280;51033;42.648;23.292;2023-07-16T12:31:03;94089.22;;;30.49;39.52
30935;BME280;51033;42.648;23.292;2023-07-16T12:33:29;94075.91;;;30.47;35.95
30935;BME280;51033;42.648;23.292;2023-07-16T12:35:54;94090.53;;;30.57;36.50
30935;BME280;51033;42.648;23.292;2023-07-16T12:38:19;94066.84;;;30.50;37.11
30935;BME280;51033;42.648;23.292;2023-07-16T12:40:46;94060.69;;;30.59;38.58
30935;BME280;51033;42.648;23.292;2023-07-16T12:43:11;94071.75;;;30.55;37.26
30935;BME280;51033;42.648;23.292;2023-07-16T12:45:37;94079.47;;;30.60;38.16
30935;BME280;51033;42.648;23.292;2023-07-16T12:48:02;94067.81;;;30.56;36.99
30935;BME280;51033;42.648;23.292;2023-07-16T12:50:27;94077.06;;;30.62;36.67
30935;BME280;51033;42.648;23.292;2023-07-16T12:52:54;94081.00;;;30.61;36.06
30935;BME280;51033;42.648;23.292;2023-07-16T12:55:20;94068.78;;;30.78;34.79
30935;BME280;51033;42.648;23.292;2023-07-16T12:57:45;94067.78;;;30.72;35.65
30935;BME280;51033;42.648;23.292;2023-07-16T13:00:11;94076.03;;;30.72;35.02